createdAt,value
2017-12-13T00:00:02.877Z,9.50
2017-12-13T00:01:09.845Z,10.60
2017-12-13T00:02:16.836Z,13.20
2017-12-13T00:03:23.688Z,10.80
2017-12-13T00:04:30.709Z,11.50
2017-12-13T00:05:37.728Z,13.10
2017-12-13T00:06:44.803Z,13.70
2017-12-13T00:07:51.772Z,13.60
2017-12-13T00:08:58.765Z,9.80
2017-12-13T00:10:05.756Z,11.60
2017-12-13T00:11:12.728Z,12.40
2017-12-13T00:12:19.573Z,11.30
2017-12-13T00:13:26.564Z,10.10
2017-12-13T00:14:33.563Z,10.90
2017-12-13T00:15:40.516Z,9.00
2017-12-13T00:16:47.560Z,8.50
2017-12-13T00:17:54.538Z,8.80
2017-12-13T00:19:01.450Z,12.30
2017-12-13T00:20:08.364Z,11.50
2017-12-13T00:21:15.324Z,9.50
2017-12-13T00:22:22.220Z,10.10
2017-12-13T00:23:29.344Z,9.70
2017-12-13T00:24:36.293Z,10.10
2017-12-13T00:25:43.351Z,11.10
2017-12-13T00:26:50.335Z,11.20
2017-12-13T00:27:57.407Z,9.50
2017-12-13T00:29:09.528Z,9.40
2017-12-13T00:30:11.428Z,8.80
2017-12-13T00:31:18.397Z,8.30
2017-12-13T00:32:25.517Z,9.20
2017-12-13T00:33:32.477Z,10.20
2017-12-13T00:34:39.411Z,10.10
2017-12-13T00:35:46.424Z,9.40
2017-12-13T00:36:53.368Z,10.50
2017-12-13T00:38:00.476Z,8.60
2017-12-13T00:39:07.464Z,11.80
2017-12-13T00:40:14.399Z,9.90
2017-12-13T00:41:21.358Z,14.00
2017-12-13T00:42:28.384Z,12.70
2017-12-13T00:43:35.253Z,11.20
2017-12-13T00:44:42.181Z,9.70
2017-12-13T00:45:49.160Z,10.90
2017-12-13T00:46:56.091Z,8.50
2017-12-13T00:48:03.141Z,11.30
2017-12-13T00:49:10.158Z,10.00
2017-12-13T00:50:17.275Z,8.80
2017-12-13T00:51:24.200Z,11.20
2017-12-13T00:52:31.117Z,8.50
2017-12-13T00:53:38.196Z,12.10
2017-12-13T00:54:45.138Z,11.40
2017-12-13T00:55:52.076Z,9.40
2017-12-13T00:56:59.073Z,10.40
2017-12-13T00:58:06.051Z,10.80
2017-12-13T00:59:13.073Z,10.60
2017-12-13T01:00:20.061Z,7.90
2017-12-13T01:01:27.023Z,9.20
2017-12-13T01:02:34.042Z,10.40
2017-12-13T01:03:40.969Z,12.40
2017-12-13T01:04:47.923Z,9.10
2017-12-13T01:05:54.889Z,8.60
2017-12-13T01:07:01.889Z,10.70
2017-12-13T01:08:08.821Z,8.40
2017-12-13T01:09:15.764Z,9.10
2017-12-13T01:10:22.676Z,11.50
2017-12-13T01:11:29.748Z,9.40
2017-12-13T01:12:36.743Z,10.30
2017-12-13T01:13:43.686Z,12.40
2017-12-13T01:14:50.811Z,10.70
2017-12-13T01:15:57.659Z,10.30
2017-12-13T01:17:04.528Z,10.60
2017-12-13T01:18:11.513Z,12.00
2017-12-13T01:19:18.429Z,13.60
2017-12-13T01:20:25.410Z,9.60
2017-12-13T01:21:32.389Z,9.20
2017-12-13T01:22:39.250Z,9.90
2017-12-13T01:23:46.236Z,10.40
2017-12-13T01:24:53.188Z,10.20
2017-12-13T01:26:00.176Z,10.90
2017-12-13T01:27:07.100Z,7.80
2017-12-13T01:28:14.101Z,9.50
2017-12-13T01:29:21.168Z,8.60
2017-12-13T01:30:28.181Z,9.60
2017-12-13T01:31:35.164Z,9.50
2017-12-13T01:32:42.182Z,9.60
2017-12-13T01:33:49.296Z,9.30
2017-12-13T01:34:56.122Z,8.80
2017-12-13T01:36:03.098Z,14.80
2017-12-13T01:37:10.141Z,9.20
2017-12-13T01:38:17.021Z,9.00
2017-12-13T01:39:23.868Z,11.30
2017-12-13T01:40:31.042Z,10.50
2017-12-13T01:41:38.099Z,8.20
2017-12-13T01:42:45.112Z,7.60
2017-12-13T01:43:52.093Z,9.90
2017-12-13T01:44:59.040Z,8.20
2017-12-13T01:46:06.034Z,9.50
2017-12-13T01:47:13.012Z,8.70
2017-12-13T01:48:19.840Z,8.80
2017-12-13T01:49:27.022Z,10.40
2017-12-13T01:50:33.919Z,8.30
2017-12-13T01:51:40.894Z,9.10
2017-12-13T01:52:47.899Z,10.30
2017-12-13T01:53:54.929Z,8.30
2017-12-13T01:55:01.996Z,8.80
2017-12-13T01:56:08.948Z,8.70
2017-12-13T01:57:15.816Z,10.30
2017-12-13T01:58:22.790Z,10.50
2017-12-13T01:59:29.897Z,10.00
2017-12-13T02:00:36.980Z,9.90
2017-12-13T02:01:43.965Z,9.50
2017-12-13T02:02:50.868Z,12.00
2017-12-13T02:03:57.964Z,11.00
2017-12-13T02:05:04.986Z,8.00
2017-12-13T02:07:19.039Z,10.20
2017-12-13T02:08:26.008Z,9.20
2017-12-13T02:09:33.180Z,8.60
2017-12-13T02:10:40.177Z,9.30
2017-12-13T02:11:47.150Z,11.50
2017-12-13T02:12:54.138Z,11.00
2017-12-13T02:14:01.149Z,10.30
2017-12-13T02:15:08.178Z,10.10
2017-12-13T02:16:15.297Z,8.90
2017-12-13T02:17:22.223Z,10.20
2017-12-13T02:18:29.202Z,8.90
2017-12-13T02:19:36.084Z,10.10
2017-12-13T02:20:43.037Z,10.20
2017-12-13T02:21:50.013Z,9.40
2017-12-13T02:22:57.159Z,6.90
2017-12-13T02:24:04.239Z,10.00
2017-12-13T02:25:11.212Z,7.50
2017-12-13T02:26:18.177Z,8.30
2017-12-13T02:27:25.109Z,11.80
2017-12-13T02:28:31.996Z,9.40
2017-12-13T02:29:39.018Z,11.90
2017-12-13T02:30:45.930Z,12.30
2017-12-13T02:31:53.085Z,11.10
2017-12-13T02:32:59.984Z,7.20
2017-12-13T02:34:07.028Z,10.20
2017-12-13T02:35:14.049Z,10.60
2017-12-13T02:36:20.999Z,11.80
2017-12-13T02:37:27.942Z,9.00
2017-12-13T02:38:34.921Z,9.40
2017-12-13T02:39:41.938Z,7.30
2017-12-13T02:40:48.632Z,9.70
2017-12-13T02:41:55.539Z,11.50
2017-12-13T02:43:02.529Z,9.70
2017-12-13T02:44:09.491Z,8.10
2017-12-13T02:45:16.456Z,7.10
2017-12-13T02:46:23.353Z,7.70
2017-12-13T02:47:30.422Z,13.10
2017-12-13T02:48:37.504Z,9.50
2017-12-13T02:49:44.595Z,8.60
2017-12-13T02:50:51.749Z,9.60
2017-12-13T02:51:58.714Z,7.90
2017-12-13T02:53:05.647Z,9.10
2017-12-13T02:54:12.448Z,7.90
2017-12-13T02:55:19.378Z,8.30
2017-12-13T02:56:26.522Z,7.70
2017-12-13T02:57:33.587Z,8.30
2017-12-13T02:58:40.608Z,9.20
2017-12-13T02:59:47.557Z,7.70
2017-12-13T03:00:54.617Z,9.40
2017-12-13T03:02:01.513Z,7.10
2017-12-13T03:03:08.123Z,10.90
2017-12-13T03:04:15.077Z,8.60
2017-12-13T03:05:22.108Z,9.80
2017-12-13T03:06:29.047Z,9.40
2017-12-13T03:07:35.996Z,11.30
2017-12-13T03:08:42.856Z,7.30
2017-12-13T03:09:49.774Z,7.10
2017-12-13T03:10:56.765Z,6.70
2017-12-13T03:12:03.691Z,10.20
2017-12-13T03:13:10.597Z,7.30
2017-12-13T03:14:17.616Z,8.30
2017-12-13T03:15:24.522Z,8.10
2017-12-13T03:16:31.425Z,7.90
2017-12-13T03:17:38.405Z,8.50
2017-12-13T03:18:45.307Z,8.60
2017-12-13T03:19:52.304Z,6.30
2017-12-13T03:20:59.373Z,6.80
2017-12-13T03:22:06.324Z,7.20
2017-12-13T03:23:13.346Z,8.60
2017-12-13T03:24:20.288Z,7.10
2017-12-13T03:25:27.220Z,9.30
2017-12-13T03:26:34.128Z,7.40
2017-12-13T03:27:41.328Z,8.30
2017-12-13T03:28:48.258Z,7.90
2017-12-13T03:29:55.117Z,11.20
2017-12-13T03:31:02.353Z,8.20
2017-12-13T03:32:09.280Z,6.70
2017-12-13T03:33:16.256Z,13.00
2017-12-13T03:34:23.236Z,8.70
2017-12-13T03:35:30.229Z,10.60
2017-12-13T03:36:37.184Z,9.60
2017-12-13T03:37:44.224Z,6.30
2017-12-13T03:38:51.221Z,7.80
2017-12-13T03:39:58.184Z,6.60
2017-12-13T03:41:05.129Z,8.10
2017-12-13T03:42:12.033Z,8.30
2017-12-13T03:43:18.952Z,7.60
2017-12-13T03:44:25.825Z,6.30
2017-12-13T03:45:33.033Z,7.60
2017-12-13T03:46:39.908Z,5.90
2017-12-13T03:47:46.803Z,8.90
2017-12-13T03:48:53.757Z,9.00
2017-12-13T03:50:00.770Z,5.90
2017-12-13T03:51:07.768Z,6.40
2017-12-13T03:52:14.768Z,8.00
2017-12-13T03:53:21.698Z,5.80
2017-12-13T03:54:28.706Z,10.30
2017-12-13T03:55:35.676Z,4.70
2017-12-13T03:56:42.630Z,7.90
2017-12-13T03:57:49.652Z,9.60
2017-12-13T03:58:56.538Z,7.10
2017-12-13T04:00:03.580Z,7.50
2017-12-13T04:01:10.484Z,6.70
2017-12-13T04:02:17.473Z,9.10
2017-12-13T04:03:24.348Z,6.90
2017-12-13T04:04:31.320Z,9.60
2017-12-13T04:05:38.232Z,6.80
2017-12-13T04:06:45.318Z,6.60
2017-12-13T04:07:52.348Z,6.10
2017-12-13T04:08:59.217Z,8.30
2017-12-13T04:10:06.049Z,5.90
2017-12-13T04:11:12.901Z,8.20
2017-12-13T04:12:19.940Z,5.30
2017-12-13T04:13:26.868Z,5.50
2017-12-13T04:14:33.848Z,7.50
2017-12-13T04:15:40.674Z,8.30
2017-12-13T04:16:47.828Z,6.30
2017-12-13T04:17:54.673Z,8.10
2017-12-13T04:19:01.605Z,8.10
2017-12-13T04:20:08.461Z,11.10
2017-12-13T04:21:15.437Z,4.90
2017-12-13T04:22:22.493Z,5.80
2017-12-13T04:23:29.583Z,8.70
2017-12-13T04:24:36.536Z,10.00
2017-12-13T04:25:43.405Z,5.50
2017-12-13T04:26:50.536Z,7.50
2017-12-13T04:27:57.403Z,8.90
2017-12-13T04:29:04.340Z,5.40
2017-12-13T04:30:11.316Z,6.80
2017-12-13T04:31:18.284Z,8.30
2017-12-13T04:32:25.276Z,6.60
2017-12-13T04:33:32.211Z,7.60
2017-12-13T04:34:39.178Z,9.10
2017-12-13T04:35:46.165Z,4.90
2017-12-13T04:36:53.059Z,5.10
2017-12-13T04:38:00.016Z,6.70
2017-12-13T04:39:06.963Z,5.10
2017-12-13T04:40:13.908Z,7.50
2017-12-13T04:41:20.890Z,7.60
2017-12-13T04:42:27.848Z,6.50
2017-12-13T04:43:34.768Z,6.20
2017-12-13T04:44:41.726Z,8.50
2017-12-13T04:45:48.620Z,10.40
2017-12-13T04:46:55.734Z,7.90
2017-12-13T04:48:02.724Z,6.20
2017-12-13T04:49:09.671Z,8.00
2017-12-13T04:50:16.670Z,4.90
2017-12-13T04:51:23.625Z,8.40
2017-12-13T04:52:30.486Z,5.50
2017-12-13T04:53:37.440Z,5.50
2017-12-13T04:54:44.349Z,6.00
2017-12-13T04:55:51.217Z,4.90
2017-12-13T04:56:58.176Z,7.70
2017-12-13T04:58:05.333Z,6.20
2017-12-13T04:59:12.167Z,4.50
2017-12-13T05:00:19.350Z,7.50
2017-12-13T05:01:26.363Z,4.90
2017-12-13T05:02:33.321Z,6.50
2017-12-13T05:03:40.217Z,5.90
2017-12-13T05:04:47.325Z,6.70
2017-12-13T05:05:54.278Z,7.90
2017-12-13T05:07:01.237Z,6.00
2017-12-13T05:08:08.163Z,6.60
2017-12-13T05:09:15.077Z,8.00
2017-12-13T05:10:22.115Z,6.60
2017-12-13T05:11:29.113Z,6.10
2017-12-13T05:12:36.072Z,4.90
2017-12-13T05:13:43.053Z,5.60
2017-12-13T05:14:49.993Z,5.00
2017-12-13T05:15:56.973Z,8.60
2017-12-13T05:17:03.956Z,7.60
2017-12-13T05:18:10.960Z,6.90
2017-12-13T05:19:18.072Z,7.50
2017-12-13T05:20:25.120Z,9.70
2017-12-13T05:21:32.048Z,6.40
2017-12-13T05:22:39.057Z,5.70
2017-12-13T05:23:45.969Z,5.60
2017-12-13T05:24:52.945Z,5.20
2017-12-13T05:25:59.904Z,6.80
2017-12-13T05:27:06.895Z,5.70
2017-12-13T05:28:13.859Z,6.00
2017-12-13T05:29:20.789Z,8.40
2017-12-13T05:30:27.870Z,5.50
2017-12-13T05:31:34.824Z,5.60
2017-12-13T05:32:41.718Z,5.00
2017-12-13T05:33:48.718Z,4.50
2017-12-13T05:34:55.673Z,5.90
2017-12-13T05:36:02.508Z,7.40
2017-12-13T05:37:09.387Z,6.50
2017-12-13T05:38:16.218Z,5.80
2017-12-13T05:39:23.209Z,5.60
2017-12-13T05:40:30.109Z,5.60
2017-12-13T05:41:37.016Z,5.40
2017-12-13T05:42:43.942Z,6.40
2017-12-13T05:43:51.199Z,5.70
2017-12-13T05:44:58.201Z,5.50
2017-12-13T05:46:05.228Z,6.30
2017-12-13T05:47:12.130Z,6.40
2017-12-13T05:48:19.088Z,5.20
2017-12-13T05:49:26.024Z,6.60
2017-12-13T05:50:33.069Z,4.30
2017-12-13T05:51:39.606Z,12.00
2017-12-13T05:52:46.845Z,5.00
2017-12-13T05:53:53.685Z,6.10
2017-12-13T05:55:00.294Z,6.30
2017-12-13T05:56:06.968Z,6.10
2017-12-13T05:57:14.002Z,4.50
2017-12-13T05:58:21.022Z,8.00
2017-12-13T05:59:27.753Z,7.90
2017-12-13T06:00:34.886Z,8.50
2017-12-13T06:01:41.228Z,10.00
2017-12-13T06:02:48.105Z,7.80
2017-12-13T06:03:55.036Z,6.80
2017-12-13T06:05:02.036Z,5.40
2017-12-13T06:06:09.080Z,9.10
2017-12-13T06:07:16.023Z,8.60
2017-12-13T06:08:22.925Z,4.80
2017-12-13T06:09:30.632Z,4.40
2017-12-13T06:10:36.597Z,6.90
2017-12-13T06:11:43.533Z,4.20
2017-12-13T06:12:50.469Z,4.80
2017-12-13T06:13:57.352Z,3.90
2017-12-13T06:15:04.544Z,4.70
2017-12-13T06:16:11.452Z,4.70
2017-12-13T06:17:18.676Z,4.80
2017-12-13T06:18:25.857Z,6.60
2017-12-13T06:19:32.862Z,5.80
2017-12-13T06:20:39.961Z,4.70
2017-12-13T06:21:46.828Z,5.40
2017-12-13T06:22:53.927Z,4.00
2017-12-13T06:24:01.029Z,7.30
2017-12-13T06:25:07.994Z,5.00
2017-12-13T06:26:14.877Z,7.20
2017-12-13T06:27:21.845Z,6.30
2017-12-13T06:28:28.840Z,4.60
2017-12-13T06:29:35.776Z,6.20
2017-12-13T06:30:42.808Z,5.50
2017-12-13T06:31:49.688Z,7.30
2017-12-13T06:32:56.671Z,4.70
2017-12-13T06:34:03.668Z,4.50
2017-12-13T06:35:10.692Z,4.50
2017-12-13T06:36:17.786Z,5.00
2017-12-13T06:37:24.878Z,6.00
2017-12-13T06:38:31.957Z,4.40
2017-12-13T06:39:38.990Z,5.50
2017-12-13T06:40:45.966Z,5.40
2017-12-13T06:41:52.921Z,5.00
2017-12-13T06:42:59.796Z,9.70
2017-12-13T06:44:06.748Z,4.80
2017-12-13T06:45:13.760Z,5.80
2017-12-13T06:46:20.889Z,7.30
2017-12-13T06:47:27.931Z,5.60
2017-12-13T06:48:34.959Z,6.90
2017-12-13T06:49:41.977Z,7.80
2017-12-13T06:50:48.857Z,7.00
2017-12-13T06:51:55.804Z,4.50
2017-12-13T06:53:03.047Z,7.10
2017-12-13T06:54:10.127Z,9.00
2017-12-13T06:55:17.258Z,4.70
2017-12-13T06:56:24.197Z,8.30
2017-12-13T06:57:31.305Z,7.90
2017-12-13T06:58:38.414Z,4.70
2017-12-13T06:59:45.452Z,6.80
2017-12-13T07:00:52.568Z,7.00
2017-12-13T07:01:59.365Z,6.20
2017-12-13T07:03:06.548Z,6.00
2017-12-13T07:04:13.677Z,5.00
2017-12-13T07:05:20.625Z,4.60
2017-12-13T07:06:27.625Z,5.00
2017-12-13T07:07:34.671Z,11.10
2017-12-13T07:08:41.596Z,4.90
2017-12-13T07:09:48.537Z,7.30
2017-12-13T07:10:55.508Z,4.90
2017-12-13T07:12:02.472Z,6.30
2017-12-13T07:13:09.444Z,4.90
2017-12-13T07:14:16.601Z,6.10
2017-12-13T07:15:23.577Z,7.80
2017-12-13T07:16:30.434Z,5.50
2017-12-13T07:17:37.436Z,5.60
2017-12-13T07:18:44.733Z,6.00
2017-12-13T07:19:51.668Z,5.10
2017-12-13T07:20:58.640Z,6.00
2017-12-13T07:22:05.545Z,5.30
2017-12-13T07:23:12.757Z,5.50
2017-12-13T07:24:19.692Z,7.00
2017-12-13T07:25:26.817Z,5.70
2017-12-13T07:26:33.765Z,5.20
2017-12-13T07:27:40.817Z,6.90
2017-12-13T07:28:47.934Z,11.40
2017-12-13T07:29:54.912Z,6.90
2017-12-13T07:31:01.964Z,4.40
2017-12-13T07:32:09.082Z,5.70
2017-12-13T07:33:15.953Z,5.20
2017-12-13T07:34:22.923Z,7.50
2017-12-13T07:35:29.866Z,5.20
2017-12-13T07:36:36.801Z,5.40
2017-12-13T07:37:43.793Z,5.70
2017-12-13T07:38:50.772Z,6.90
2017-12-13T07:39:57.693Z,6.60
2017-12-13T07:41:04.779Z,6.70
2017-12-13T07:42:11.403Z,7.10
2017-12-13T07:43:18.352Z,4.70
2017-12-13T07:44:25.316Z,9.30
2017-12-13T07:45:32.401Z,5.90
2017-12-13T07:46:39.360Z,5.90
2017-12-13T07:47:46.345Z,6.00
2017-12-13T07:48:53.375Z,9.90
2017-12-13T07:50:00.024Z,7.70
2017-12-13T07:51:07.019Z,7.30
2017-12-13T07:52:14.048Z,8.20
2017-12-13T07:53:20.893Z,6.20
2017-12-13T07:54:27.882Z,7.00
2017-12-13T07:55:34.409Z,4.70
2017-12-13T07:56:41.464Z,7.40
2017-12-13T07:57:48.448Z,5.00
2017-12-13T07:58:55.393Z,6.00
2017-12-13T08:00:02.369Z,5.20
2017-12-13T08:01:09.369Z,6.60
2017-12-13T08:02:16.324Z,5.20
2017-12-13T08:03:23.322Z,7.50
2017-12-13T08:04:30.288Z,6.40
2017-12-13T08:05:37.180Z,5.40
2017-12-13T08:06:44.316Z,6.10
2017-12-13T08:07:51.181Z,5.70
2017-12-13T08:08:57.576Z,5.30
2017-12-13T08:10:04.704Z,5.50
2017-12-13T08:11:11.729Z,5.50
2017-12-13T08:12:18.824Z,4.90
2017-12-13T08:13:25.690Z,7.30
2017-12-13T08:14:32.794Z,5.50
2017-12-13T08:15:39.796Z,7.30
2017-12-13T08:16:46.833Z,4.30
2017-12-13T08:17:54.615Z,4.50
2017-12-13T08:19:00.518Z,5.40
2017-12-13T08:20:08.334Z,8.60
2017-12-13T08:21:14.588Z,5.80
2017-12-13T08:22:22.741Z,4.10
2017-12-13T08:23:28.650Z,6.70
2017-12-13T08:24:35.724Z,4.60
2017-12-13T08:25:42.692Z,5.10
2017-12-13T08:26:49.654Z,4.30
2017-12-13T08:27:56.653Z,6.70
2017-12-13T08:29:03.863Z,7.80
2017-12-13T08:30:10.349Z,6.10
2017-12-13T08:31:17.525Z,5.30
2017-12-13T08:32:24.449Z,5.00
2017-12-13T08:33:31.420Z,8.00
2017-12-13T08:34:38.389Z,7.60
2017-12-13T08:35:45.306Z,3.80
2017-12-13T08:36:52.298Z,5.50
2017-12-13T08:37:59.308Z,5.10
2017-12-13T08:39:06.211Z,5.50
2017-12-13T08:40:13.204Z,5.30
2017-12-13T08:41:20.163Z,6.20
2017-12-13T08:42:27.297Z,7.00
2017-12-13T08:43:33.933Z,3.70
2017-12-13T08:44:40.976Z,6.50
2017-12-13T08:45:47.933Z,8.30
2017-12-13T08:46:54.876Z,3.60
2017-12-13T08:48:03.896Z,6.20
2017-12-13T08:49:10.095Z,6.20
2017-12-13T08:50:16.228Z,4.20
2017-12-13T08:51:23.233Z,4.20
2017-12-13T08:52:30.151Z,3.60
2017-12-13T08:53:37.413Z,5.20
2017-12-13T08:54:44.220Z,4.40
2017-12-13T08:55:51.101Z,6.20
2017-12-13T08:56:58.062Z,4.60
2017-12-13T08:58:05.165Z,4.70
2017-12-13T08:59:13.369Z,7.20
2017-12-13T09:00:18.601Z,4.10
2017-12-13T09:01:25.575Z,3.60
2017-12-13T09:02:32.484Z,4.40
2017-12-13T09:03:39.497Z,4.40
2017-12-13T09:04:46.538Z,5.50
2017-12-13T09:05:53.487Z,4.80
2017-12-13T09:07:00.022Z,4.00
2017-12-13T09:08:07.005Z,4.00
2017-12-13T09:09:14.109Z,5.30
2017-12-13T09:10:21.159Z,9.90
2017-12-13T09:11:28.070Z,4.20
2017-12-13T09:12:35.230Z,6.00
2017-12-13T09:13:42.442Z,5.70
2017-12-13T09:14:49.588Z,5.20
2017-12-13T09:15:56.824Z,4.20
2017-12-13T09:17:03.479Z,7.80
2017-12-13T09:18:10.256Z,5.00
2017-12-13T09:19:17.460Z,4.20
2017-12-13T09:20:23.945Z,6.50
2017-12-13T09:21:31.086Z,4.60
2017-12-13T09:22:37.864Z,4.50
2017-12-13T09:23:44.855Z,4.10
2017-12-13T09:24:54.506Z,9.60
2017-12-13T09:26:00.068Z,6.50
2017-12-13T09:27:05.681Z,4.90
2017-12-13T09:28:12.241Z,4.60
2017-12-13T09:29:19.265Z,4.20
2017-12-13T09:30:25.688Z,6.10
2017-12-13T09:31:32.337Z,4.80
2017-12-13T09:32:39.150Z,5.30
2017-12-13T09:33:46.001Z,4.30
2017-12-13T09:34:53.094Z,6.60
2017-12-13T09:35:59.963Z,5.00
2017-12-13T09:37:06.910Z,4.40
2017-12-13T09:38:13.907Z,4.10
2017-12-13T09:39:20.882Z,5.80
2017-12-13T09:40:27.821Z,5.30
2017-12-13T09:41:34.861Z,5.50
2017-12-13T09:42:41.995Z,5.00
2017-12-13T09:43:49.150Z,5.10
2017-12-13T09:44:56.239Z,4.30
2017-12-13T09:46:02.915Z,3.70
2017-12-13T09:47:09.920Z,6.10
2017-12-13T09:48:16.913Z,6.90
2017-12-13T09:49:23.614Z,4.70
2017-12-13T09:50:30.644Z,4.90
2017-12-13T09:51:37.150Z,5.90
2017-12-13T09:52:44.104Z,5.60
2017-12-13T09:53:50.594Z,4.50
2017-12-13T09:54:57.722Z,4.80
2017-12-13T09:56:04.724Z,6.90
2017-12-13T09:57:11.816Z,5.20
2017-12-13T09:58:18.482Z,6.70
2017-12-13T09:59:25.665Z,5.00
2017-12-13T10:00:32.341Z,5.40
2017-12-13T10:01:39.387Z,5.10
2017-12-13T10:02:46.291Z,7.70
2017-12-13T10:03:53.204Z,8.10
2017-12-13T10:05:00.153Z,7.00
2017-12-13T10:06:07.218Z,5.10
2017-12-13T10:07:14.189Z,4.70
2017-12-13T10:08:21.275Z,4.90
2017-12-13T10:09:28.517Z,5.80
2017-12-13T10:10:35.073Z,5.70
2017-12-13T10:11:42.341Z,6.10
2017-12-13T10:12:49.393Z,5.20
2017-12-13T10:13:56.465Z,5.00
2017-12-13T10:15:03.537Z,4.80
2017-12-13T10:16:10.530Z,5.90
2017-12-13T10:17:17.517Z,5.30
2017-12-13T10:18:24.481Z,5.00
2017-12-13T10:19:31.464Z,5.10
2017-12-13T10:20:38.366Z,5.30
2017-12-13T10:21:45.273Z,5.20
2017-12-13T10:22:52.486Z,5.40
2017-12-13T10:23:59.137Z,4.90
2017-12-13T10:25:06.128Z,5.70
2017-12-13T10:26:13.256Z,5.40
2017-12-13T10:27:20.372Z,5.10
2017-12-13T10:28:27.231Z,5.20
2017-12-13T10:29:34.308Z,4.90
2017-12-13T10:30:41.317Z,7.00
2017-12-13T10:31:48.304Z,5.30
2017-12-13T10:32:56.574Z,5.60
2017-12-13T10:34:02.520Z,4.90
2017-12-13T10:35:09.182Z,5.00
2017-12-13T10:36:17.322Z,5.20
2017-12-13T10:37:23.320Z,5.20
2017-12-13T10:38:31.186Z,4.90
2017-12-13T10:39:37.023Z,5.00
2017-12-13T10:40:43.735Z,5.80
2017-12-13T10:41:50.807Z,5.80
2017-12-13T10:42:57.820Z,5.70
2017-12-13T10:44:04.784Z,4.80
2017-12-13T10:45:11.954Z,5.00
2017-12-13T10:46:18.941Z,5.10
2017-12-13T10:47:26.062Z,5.90
2017-12-13T10:48:33.302Z,5.50
2017-12-13T10:49:40.745Z,4.80
2017-12-13T10:50:47.283Z,6.00
2017-12-13T10:51:54.055Z,4.40
2017-12-13T10:53:00.657Z,4.90
2017-12-13T10:54:07.481Z,4.80
2017-12-13T10:55:14.461Z,5.60
2017-12-13T10:56:21.804Z,4.40
2017-12-13T10:57:28.312Z,5.00
2017-12-13T10:58:35.384Z,4.40
2017-12-13T10:59:42.024Z,5.50
2017-12-13T11:00:48.969Z,4.60
2017-12-13T11:01:55.823Z,4.30
2017-12-13T11:03:02.880Z,4.40
2017-12-13T11:04:10.049Z,4.60
2017-12-13T11:05:17.040Z,5.40
2017-12-13T11:06:24.262Z,4.30
2017-12-13T11:07:31.367Z,4.30
2017-12-13T11:08:38.682Z,4.60
2017-12-13T11:09:45.216Z,4.00
2017-12-13T11:10:52.366Z,4.00
2017-12-13T11:11:59.733Z,4.20
2017-12-13T11:13:06.375Z,4.90
2017-12-13T11:14:13.193Z,4.30
2017-12-13T11:15:19.804Z,4.80
2017-12-13T11:16:26.811Z,5.20
2017-12-13T11:17:33.841Z,4.50
2017-12-13T11:18:40.808Z,4.00
2017-12-13T11:19:47.983Z,4.00
2017-12-13T11:20:54.830Z,4.50
2017-12-13T11:22:01.807Z,4.40
2017-12-13T11:23:08.771Z,4.60
2017-12-13T11:24:16.781Z,4.90
2017-12-13T11:25:22.948Z,4.20
2017-12-13T11:26:30.040Z,6.00
2017-12-13T11:27:36.552Z,4.20
2017-12-13T11:28:43.827Z,4.50
2017-12-13T11:29:50.834Z,4.10
2017-12-13T11:30:57.932Z,4.20
2017-12-13T11:32:04.576Z,3.20
2017-12-13T11:33:11.393Z,4.00
2017-12-13T11:34:18.349Z,4.10
2017-12-13T11:35:25.158Z,4.00
2017-12-13T11:36:32.098Z,3.70
2017-12-13T11:37:39.449Z,3.60
2017-12-13T11:38:46.167Z,3.80
2017-12-13T11:39:53.274Z,3.40
2017-12-13T11:41:00.340Z,4.20
2017-12-13T11:42:06.973Z,4.50
2017-12-13T11:43:13.560Z,4.30
2017-12-13T11:44:20.775Z,3.60
2017-12-13T11:45:27.828Z,4.30
2017-12-13T11:46:34.869Z,3.20
2017-12-13T11:47:41.896Z,3.30
2017-12-13T11:48:48.955Z,4.20
2017-12-13T11:49:55.973Z,3.20
2017-12-13T11:51:03.018Z,4.30
2017-12-13T11:52:09.844Z,3.50
2017-12-13T11:53:16.658Z,3.30
2017-12-13T11:54:23.788Z,3.40
2017-12-13T11:55:30.677Z,4.00
2017-12-13T11:56:37.601Z,3.60
2017-12-13T11:57:44.218Z,3.10
2017-12-13T11:58:51.042Z,4.20
2017-12-13T11:59:58.422Z,3.30
2017-12-13T12:01:05.481Z,5.60
2017-12-13T12:02:12.559Z,3.40
2017-12-13T12:03:19.703Z,3.10
2017-12-13T12:04:26.441Z,3.50
2017-12-13T12:05:33.609Z,3.20
2017-12-13T12:06:40.629Z,3.30
2017-12-13T12:07:47.693Z,3.20
2017-12-13T12:08:54.806Z,3.00
2017-12-13T12:10:02.012Z,3.20
2017-12-13T12:11:08.485Z,3.60
2017-12-13T12:12:15.618Z,3.30
2017-12-13T12:13:22.769Z,3.40
2017-12-13T12:14:29.594Z,3.00
2017-12-13T12:15:36.290Z,3.50
2017-12-13T12:16:42.956Z,3.10
2017-12-13T12:17:50.280Z,3.10
2017-12-13T12:18:57.148Z,2.50
2017-12-13T12:20:04.319Z,2.80
2017-12-13T12:21:11.059Z,2.90
2017-12-13T12:22:18.088Z,3.20
2017-12-13T12:23:25.129Z,2.20
2017-12-13T12:24:32.153Z,2.30
2017-12-13T12:25:39.198Z,2.70
2017-12-13T12:26:46.240Z,4.00
2017-12-13T12:27:53.376Z,2.80
2017-12-13T12:29:00.262Z,2.80
2017-12-13T12:30:07.207Z,2.40
2017-12-13T12:31:14.303Z,3.20
2017-12-13T12:32:21.048Z,2.80
2017-12-13T12:33:28.257Z,2.50
2017-12-13T12:34:35.326Z,2.80
2017-12-13T12:35:42.373Z,3.00
2017-12-13T12:36:49.398Z,2.40
2017-12-13T12:37:56.449Z,2.30
2017-12-13T12:39:03.492Z,2.40
2017-12-13T12:40:10.567Z,2.20
2017-12-13T12:41:17.679Z,2.70
2017-12-13T12:42:24.777Z,2.20
2017-12-13T12:43:31.749Z,2.60
2017-12-13T12:44:38.674Z,2.20
2017-12-13T12:45:45.746Z,1.80
2017-12-13T12:46:52.600Z,2.50
2017-12-13T12:47:59.564Z,2.50
2017-12-13T12:49:06.486Z,2.20
2017-12-13T12:50:13.420Z,2.60
2017-12-13T12:51:20.517Z,2.30
2017-12-13T12:52:27.487Z,2.20
2017-12-13T12:53:34.457Z,2.10
2017-12-13T12:54:41.584Z,2.20
2017-12-13T12:55:48.707Z,2.60
2017-12-13T12:56:55.840Z,2.20
2017-12-13T12:58:02.642Z,2.40
2017-12-13T12:59:09.596Z,3.20
2017-12-13T13:00:16.616Z,2.80
2017-12-13T13:01:23.629Z,2.30
2017-12-13T13:02:30.548Z,2.50
2017-12-13T13:03:37.552Z,2.40
2017-12-13T13:04:44.733Z,2.90
2017-12-13T13:05:51.625Z,2.80
2017-12-13T13:06:58.503Z,2.40
2017-12-13T13:08:05.881Z,2.70
2017-12-13T13:09:12.563Z,2.20
2017-12-13T13:10:19.173Z,2.20
2017-12-13T13:11:26.306Z,2.50
2017-12-13T13:12:32.877Z,2.30
2017-12-13T13:13:40.237Z,2.50
2017-12-13T13:14:46.818Z,2.30
2017-12-13T13:15:53.738Z,2.10
2017-12-13T13:17:00.890Z,2.40
2017-12-13T13:18:07.726Z,2.10
2017-12-13T13:19:14.425Z,2.00
2017-12-13T13:20:21.385Z,2.20
2017-12-13T13:21:28.307Z,2.20
2017-12-13T13:22:35.319Z,2.20
2017-12-13T13:23:42.422Z,1.80
2017-12-13T13:24:49.437Z,2.60
2017-12-13T13:25:56.631Z,2.00
2017-12-13T13:27:05.190Z,2.00
2017-12-13T13:28:10.534Z,2.00
2017-12-13T13:29:17.545Z,2.10
2017-12-13T13:30:24.184Z,1.90
2017-12-13T13:31:31.138Z,2.00
2017-12-13T13:32:37.681Z,2.40
2017-12-13T13:33:45.008Z,2.00
2017-12-13T13:34:51.631Z,2.00
2017-12-13T13:35:58.921Z,2.00
2017-12-13T13:37:05.617Z,2.00
2017-12-13T13:38:12.835Z,2.40
2017-12-13T13:39:19.296Z,2.00
2017-12-13T13:40:26.508Z,1.90
2017-12-13T13:41:33.296Z,2.50
2017-12-13T13:42:40.550Z,2.10
2017-12-13T13:43:47.529Z,2.00
2017-12-13T13:44:54.654Z,2.30
2017-12-13T13:46:01.620Z,2.00
2017-12-13T13:47:08.728Z,2.00
2017-12-13T13:48:15.745Z,2.00
2017-12-13T13:49:22.949Z,2.20
2017-12-13T13:50:30.955Z,2.20
2017-12-13T13:51:37.053Z,2.30
2017-12-13T13:52:44.101Z,2.30
2017-12-13T13:53:51.173Z,2.30
2017-12-13T13:54:58.110Z,2.20
2017-12-13T13:56:04.728Z,2.70
2017-12-13T13:57:11.793Z,1.90
2017-12-13T13:58:18.831Z,2.10
2017-12-13T13:59:25.768Z,2.00
2017-12-13T14:00:32.630Z,2.30
2017-12-13T14:01:39.546Z,2.50
2017-12-13T14:02:46.339Z,1.90
2017-12-13T14:03:53.339Z,1.90
2017-12-13T14:05:00.245Z,1.90
2017-12-13T14:06:07.147Z,2.20
2017-12-13T14:07:14.379Z,2.30
2017-12-13T14:08:21.486Z,2.70
2017-12-13T14:09:28.466Z,2.00
2017-12-13T14:10:35.468Z,2.00
2017-12-13T14:11:42.329Z,2.40
2017-12-13T14:12:49.322Z,1.80
2017-12-13T14:13:56.326Z,2.10
2017-12-13T14:15:03.268Z,2.10
2017-12-13T14:16:10.198Z,2.20
2017-12-13T14:17:17.455Z,2.20
2017-12-13T14:18:24.090Z,2.00
2017-12-13T14:19:30.713Z,2.30
2017-12-13T14:20:37.706Z,1.90
2017-12-13T14:21:44.655Z,2.20
2017-12-13T14:22:52.071Z,2.30
2017-12-13T14:23:58.303Z,2.20
2017-12-13T14:25:05.414Z,2.50
2017-12-13T14:26:12.621Z,2.60
2017-12-13T14:27:19.725Z,2.10
2017-12-13T14:28:26.736Z,2.10
2017-12-13T14:29:33.554Z,2.10
2017-12-13T14:30:40.433Z,2.00
2017-12-13T14:31:47.605Z,2.30
2017-12-13T14:32:54.805Z,2.00
2017-12-13T14:34:01.824Z,2.00
2017-12-13T14:35:08.895Z,2.70
2017-12-13T14:36:15.968Z,2.10
2017-12-13T14:37:23.137Z,2.00
2017-12-13T14:38:30.125Z,2.10
2017-12-13T14:39:37.060Z,2.10
2017-12-13T14:40:44.056Z,2.40
2017-12-13T14:41:51.130Z,2.10
2017-12-13T14:42:58.104Z,1.80
2017-12-13T14:44:05.099Z,2.00
2017-12-13T14:45:11.997Z,2.20
2017-12-13T14:46:19.003Z,1.90
2017-12-13T14:47:25.970Z,2.30
2017-12-13T14:48:32.897Z,2.00